sensor_id;sensor_type;location;lat;lon;timestamp;P1;durP1;ratioP1;P2;durP2;ratioP2
16308;SDS011;8263;48.880;9.276;2024-02-21T00:01:15;174.55;;;160.50;;
16308;SDS011;8263;48.880;9.276;2024-02-21T00:03:42;176.00;;;161.77;;
16308;SDS011;8263;48.880;9.276;2024-02-21T00:06:08;175.23;;;159.55;;
16308;SDS011;8263;48.880;9.276;2024-02-21T00:08:36;174.25;;;160.18;;
16308;SDS011;8263;48.880;9.276;2024-02-21T00:11:03;175.73;;;161.45;;
16308;SDS011;8263;48.880;9.276;2024-02-21T00:13:29;173.98;;;159.90;;
16308;SDS011;8263;48.880;9.276;2024-02-21T00:15:56;175.27;;;161.02;;
16308;SDS011;8263;48.880;9.276;2024-02-21T00:18:22;176.55;;;162.25;;
16308;SDS011;8263;48.880;9.276;2024-02-21T00:20:49;173.23;;;159.10;;
16308;SDS011;8263;48.880;9.276;2024-02-21T00:23:16;176.45;;;162.20;;
16308;SDS011;8263;48.880;9.276;2024-02-21T00:25:44;177.25;;;161.48;;
16308;SDS011;8263;48.880;9.276;2024-02-21T00:28:10;175.13;;;160.93;;
16308;SDS011;8263;48.880;9.276;2024-02-21T00:30:37;173.70;;;159.70;;
16308;SDS011;8263;48.880;9.276;2024-02-21T00:33:03;175.32;;;161.15;;
16308;SDS011;8263;48.880;9.276;2024-02-21T00:35:30;173.40;;;159.45;;
16308;SDS011;8263;48.880;9.276;2024-02-21T00:37:56;173.90;;;159.80;;
16308;SDS011;8263;48.880;9.276;2024-02-21T00:40:24;174.68;;;160.55;;
16308;SDS011;8263;48.880;9.276;2024-02-21T00:42:52;174.20;;;160.13;;
16308;SDS011;8263;48.880;9.276;2024-02-21T00:45:19;173.68;;;159.57;;
16308;SDS011;8263;48.880;9.276;2024-02-21T00:47:45;176.23;;;161.95;;
16308;SDS011;8263;48.880;9.276;2024-02-21T00:50:12;170.40;;;156.70;;
16308;SDS011;8263;48.880;9.276;2024-02-21T00:52:38;175.38;;;161.18;;
16308;SDS011;8263;48.880;9.276;2024-02-21T00:55:05;175.45;;;161.25;;
16308;SDS011;8263;48.880;9.276;2024-02-21T00:57:31;173.27;;;159.30;;
16308;SDS011;8263;48.880;9.276;2024-02-21T01:00:00;174.65;;;160.55;;
16308;SDS011;8263;48.880;9.276;2024-02-21T01:02:26;176.52;;;162.23;;
16308;SDS011;8263;48.880;9.276;2024-02-21T01:04:53;175.93;;;161.63;;
16308;SDS011;8263;48.880;9.276;2024-02-21T01:07:19;173.73;;;159.68;;
16308;SDS011;8263;48.880;9.276;2024-02-21T01:09:54;175.52;;;161.25;;
16308;SDS011;8263;48.880;9.276;2024-02-21T01:12:21;174.70;;;160.45;;
16308;SDS011;8263;48.880;9.276;2024-02-21T01:14:47;173.65;;;159.52;;
16308;SDS011;8263;48.880;9.276;2024-02-21T01:17:15;176.07;;;161.70;;
16308;SDS011;8263;48.880;9.276;2024-02-21T01:19:42;172.73;;;158.70;;
16308;SDS011;8263;48.880;9.276;2024-02-21T01:22:08;175.95;;;161.65;;
16308;SDS011;8263;48.880;9.276;2024-02-21T01:24:35;176.27;;;161.98;;
16308;SDS011;8263;48.880;9.276;2024-02-21T01:27:01;174.57;;;160.48;;
16308;SDS011;8263;48.880;9.276;2024-02-21T01:29:28;174.35;;;160.20;;
16308;SDS011;8263;48.880;9.276;2024-02-21T01:31:54;176.52;;;162.20;;
16308;SDS011;8263;48.880;9.276;2024-02-21T01:34:23;176.35;;;162.05;;
16308;SDS011;8263;48.880;9.276;2024-02-21T01:36:49;173.38;;;159.40;;
16308;SDS011;8263;48.880;9.276;2024-02-21T01:39:16;177.82;;;162.93;;
16308;SDS011;8263;48.880;9.276;2024-02-21T01:41:42;175.00;;;160.82;;
16308;SDS011;8263;48.880;9.276;2024-02-21T01:44:09;176.32;;;162.05;;
16308;SDS011;8263;48.880;9.276;2024-02-21T01:46:35;177.35;;;162.85;;
16308;SDS011;8263;48.880;9.276;2024-02-21T01:49:04;175.27;;;161.15;;
16308;SDS011;8263;48.880;9.276;2024-02-21T01:51:32;177.23;;;162.85;;
16308;SDS011;8263;48.880;9.276;2024-02-21T01:53:59;173.48;;;159.50;;
16308;SDS011;8263;48.880;9.276;2024-02-21T01:56:25;176.35;;;162.07;;
16308;SDS011;8263;48.880;9.276;2024-02-21T01:58:51;177.02;;;162.73;;
16308;SDS011;8263;48.880;9.276;2024-02-21T02:01:18;172.75;;;158.75;;
16308;SDS011;8263;48.880;9.276;2024-02-21T02:03:45;173.70;;;159.73;;
16308;SDS011;8263;48.880;9.276;2024-02-21T02:06:11;176.07;;;161.75;;
16308;SDS011;8263;48.880;9.276;2024-02-21T02:08:40;177.52;;;162.68;;
16308;SDS011;8263;48.880;9.276;2024-02-21T02:11:06;175.00;;;160.80;;
16308;SDS011;8263;48.880;9.276;2024-02-21T02:13:33;174.98;;;160.88;;
16308;SDS011;8263;48.880;9.276;2024-02-21T02:15:59;172.13;;;158.27;;
16308;SDS011;8263;48.880;9.276;2024-02-21T02:18:25;173.32;;;159.43;;
16308;SDS011;8263;48.880;9.276;2024-02-21T02:20:53;175.43;;;161.07;;
16308;SDS011;8263;48.880;9.276;2024-02-21T02:23:23;176.10;;;161.82;;
16308;SDS011;8263;48.880;9.276;2024-02-21T02:25:49;175.35;;;161.13;;
16308;SDS011;8263;48.880;9.276;2024-02-21T02:28:17;175.68;;;161.43;;
16308;SDS011;8263;48.880;9.276;2024-02-21T02:30:44;174.68;;;160.57;;
16308;SDS011;8263;48.880;9.276;2024-02-21T02:33:10;173.40;;;159.45;;
16308;SDS011;8263;48.880;9.276;2024-02-21T02:35:37;175.75;;;161.55;;
16308;SDS011;8263;48.880;9.276;2024-02-21T02:38:03;176.63;;;162.05;;
16308;SDS011;8263;48.880;9.276;2024-02-21T02:40:33;176.80;;;162.32;;
16308;SDS011;8263;48.880;9.276;2024-02-21T02:42:59;175.75;;;161.52;;
16308;SDS011;8263;48.880;9.276;2024-02-21T02:45:26;176.25;;;161.85;;
16308;SDS011;8263;48.880;9.276;2024-02-21T02:47:52;173.95;;;159.93;;
16308;SDS011;8263;48.880;9.276;2024-02-21T02:50:20;175.02;;;160.90;;
16308;SDS011;8263;48.880;9.276;2024-02-21T02:52:46;175.73;;;161.52;;
16308;SDS011;8263;48.880;9.276;2024-02-21T02:55:16;176.40;;;162.10;;
16308;SDS011;8263;48.880;9.276;2024-02-21T02:57:44;176.88;;;162.50;;
16308;SDS011;8263;48.880;9.276;2024-02-21T03:00:14;177.57;;;163.10;;
16308;SDS011;8263;48.880;9.276;2024-02-21T03:02:41;174.77;;;160.65;;
16308;SDS011;8263;48.880;9.276;2024-02-21T03:05:11;174.98;;;160.88;;
16308;SDS011;8263;48.880;9.276;2024-02-21T03:07:38;173.93;;;159.88;;
16308;SDS011;8263;48.880;9.276;2024-02-21T03:10:05;176.23;;;161.95;;
16308;SDS011;8263;48.880;9.276;2024-02-21T03:12:31;176.50;;;162.20;;
16308;SDS011;8263;48.880;9.276;2024-02-21T03:14:59;177.70;;;163.25;;
16308;SDS011;8263;48.880;9.276;2024-02-21T03:17:26;175.80;;;161.57;;
16308;SDS011;8263;48.880;9.276;2024-02-21T03:19:53;172.85;;;158.93;;
16308;SDS011;8263;48.880;9.276;2024-02-21T03:22:20;175.98;;;161.73;;
16308;SDS011;8263;48.880;9.276;2024-02-21T03:24:47;176.02;;;161.43;;
16308;SDS011;8263;48.880;9.276;2024-02-21T03:27:13;175.05;;;160.93;;
16308;SDS011;8263;48.880;9.276;2024-02-21T03:29:40;173.23;;;159.27;;
16308;SDS011;8263;48.880;9.276;2024-02-21T03:32:07;172.93;;;158.98;;
16308;SDS011;8263;48.880;9.276;2024-02-21T03:34:34;173.77;;;159.77;;
16308;SDS011;8263;48.880;9.276;2024-02-21T03:37:01;176.40;;;162.10;;
16308;SDS011;8263;48.880;9.276;2024-02-21T03:39:30;175.00;;;160.88;;
16308;SDS011;8263;48.880;9.276;2024-02-21T03:41:57;175.77;;;161.48;;
16308;SDS011;8263;48.880;9.276;2024-02-21T03:44:25;175.10;;;160.95;;
16308;SDS011;8263;48.880;9.276;2024-02-21T03:46:51;175.95;;;161.75;;
16308;SDS011;8263;48.880;9.276;2024-02-21T03:49:19;177.38;;;162.43;;
16308;SDS011;8263;48.880;9.276;2024-02-21T03:51:46;176.25;;;162.00;;
16308;SDS011;8263;48.880;9.276;2024-02-21T03:54:12;177.77;;;163.30;;
16308;SDS011;8263;48.880;9.276;2024-02-21T03:56:39;176.75;;;162.43;;
16308;SDS011;8263;48.880;9.276;2024-02-21T03:59:06;175.75;;;161.50;;
16308;SDS011;8263;48.880;9.276;2024-02-21T04:01:32;176.65;;;162.02;;
16308;SDS011;8263;48.880;9.276;2024-02-21T04:03:59;176.00;;;161.38;;
16308;SDS011;8263;48.880;9.276;2024-02-21T04:06:27;174.07;;;160.00;;
16308;SDS011;8263;48.880;9.276;2024-02-21T04:08:54;178.32;;;163.82;;
16308;SDS011;8263;48.880;9.276;2024-02-21T04:11:20;176.27;;;162.00;;
16308;SDS011;8263;48.880;9.276;2024-02-21T04:13:47;175.48;;;160.15;;
16308;SDS011;8263;48.880;9.276;2024-02-21T04:16:15;175.50;;;161.23;;
16308;SDS011;8263;48.880;9.276;2024-02-21T04:18:41;174.98;;;160.85;;
16308;SDS011;8263;48.880;9.276;2024-02-21T04:21:08;174.48;;;160.38;;
16308;SDS011;8263;48.880;9.276;2024-02-21T04:23:36;176.70;;;162.27;;
16308;SDS011;8263;48.880;9.276;2024-02-21T04:26:03;174.98;;;160.88;;
16308;SDS011;8263;48.880;9.276;2024-02-21T04:28:29;171.80;;;157.95;;
16308;SDS011;8263;48.880;9.276;2024-02-21T04:30:56;175.98;;;161.75;;
16308;SDS011;8263;48.880;9.276;2024-02-21T04:33:23;176.57;;;162.20;;
16308;SDS011;8263;48.880;9.276;2024-02-21T04:35:49;176.60;;;162.30;;
16308;SDS011;8263;48.880;9.276;2024-02-21T04:38:16;175.32;;;161.13;;
16308;SDS011;8263;48.880;9.276;2024-02-21T04:40:44;175.60;;;161.38;;
16308;SDS011;8263;48.880;9.276;2024-02-21T04:43:11;173.05;;;159.05;;
16308;SDS011;8263;48.880;9.276;2024-02-21T04:45:38;176.10;;;161.88;;
16308;SDS011;8263;48.880;9.276;2024-02-21T04:48:04;173.48;;;159.43;;
16308;SDS011;8263;48.880;9.276;2024-02-21T04:50:31;174.85;;;160.68;;
16308;SDS011;8263;48.880;9.276;2024-02-21T04:52:59;174.45;;;160.38;;
16308;SDS011;8263;48.880;9.276;2024-02-21T04:55:26;175.63;;;161.45;;
16308;SDS011;8263;48.880;9.276;2024-02-21T04:57:54;175.50;;;161.27;;
16308;SDS011;8263;48.880;9.276;2024-02-21T05:00:20;174.98;;;160.82;;
16308;SDS011;8263;48.880;9.276;2024-02-21T05:02:47;173.50;;;159.50;;
16308;SDS011;8263;48.880;9.276;2024-02-21T05:05:13;176.63;;;162.32;;
16308;SDS011;8263;48.880;9.276;2024-02-21T05:07:41;176.70;;;162.40;;
16308;SDS011;8263;48.880;9.276;2024-02-21T05:10:08;174.80;;;160.68;;
16308;SDS011;8263;48.880;9.276;2024-02-21T05:12:35;175.45;;;161.20;;
16308;SDS011;8263;48.880;9.276;2024-02-21T05:15:03;177.55;;;163.15;;
16308;SDS011;8263;48.880;9.276;2024-02-21T05:17:29;177.18;;;162.85;;
16308;SDS011;8263;48.880;9.276;2024-02-21T05:19:56;175.40;;;161.23;;
16308;SDS011;8263;48.880;9.276;2024-02-21T05:22:22;174.85;;;160.75;;
16308;SDS011;8263;48.880;9.276;2024-02-21T05:24:49;176.00;;;161.75;;
16308;SDS011;8263;48.880;9.276;2024-02-21T05:27:15;176.50;;;162.23;;
16308;SDS011;8263;48.880;9.276;2024-02-21T05:29:41;176.85;;;162.52;;
16308;SDS011;8263;48.880;9.276;2024-02-21T05:32:10;174.45;;;160.38;;
16308;SDS011;8263;48.880;9.276;2024-02-21T05:34:36;174.57;;;160.48;;
16308;SDS011;8263;48.880;9.276;2024-02-21T05:37:03;174.35;;;160.27;;
16308;SDS011;8263;48.880;9.276;2024-02-21T05:39:29;177.73;;;163.27;;
16308;SDS011;8263;48.880;9.276;2024-02-21T05:41:56;177.18;;;162.77;;
16308;SDS011;8263;48.880;9.276;2024-02-21T05:44:22;177.82;;;163.32;;
16308;SDS011;8263;48.880;9.276;2024-02-21T05:46:49;176.85;;;162.27;;
16308;SDS011;8263;48.880;9.276;2024-02-21T05:49:17;176.43;;;162.15;;
16308;SDS011;8263;48.880;9.276;2024-02-21T05:51:43;177.30;;;162.90;;
16308;SDS011;8263;48.880;9.276;2024-02-21T05:54:10;177.40;;;163.02;;
16308;SDS011;8263;48.880;9.276;2024-02-21T05:56:36;176.25;;;161.90;;
16308;SDS011;8263;48.880;9.276;2024-02-21T05:59:03;179.30;;;164.70;;
16308;SDS011;8263;48.880;9.276;2024-02-21T06:01:29;176.93;;;162.60;;
16308;SDS011;8263;48.880;9.276;2024-02-21T06:03:56;179.43;;;164.73;;
16308;SDS011;8263;48.880;9.276;2024-02-21T06:06:24;176.45;;;162.15;;
16308;SDS011;8263;48.880;9.276;2024-02-21T06:08:50;176.48;;;161.88;;
16308;SDS011;8263;48.880;9.276;2024-02-21T06:11:16;179.30;;;164.75;;
16308;SDS011;8263;48.880;9.276;2024-02-21T06:13:43;177.75;;;163.32;;
16308;SDS011;8263;48.880;9.276;2024-02-21T06:16:09;177.73;;;163.30;;
16308;SDS011;8263;48.880;9.276;2024-02-21T06:18:36;177.48;;;163.02;;
16308;SDS011;8263;48.880;9.276;2024-02-21T06:21:03;178.52;;;164.05;;
16308;SDS011;8263;48.880;9.276;2024-02-21T06:23:31;178.88;;;164.32;;
16308;SDS011;8263;48.880;9.276;2024-02-21T06:25:58;178.13;;;163.68;;
16308;SDS011;8263;48.880;9.276;2024-02-21T06:28:24;179.45;;;164.85;;
16308;SDS011;8263;48.880;9.276;2024-02-21T06:30:51;176.65;;;162.32;;
16308;SDS011;8263;48.880;9.276;2024-02-21T06:33:17;174.75;;;160.60;;
16308;SDS011;8263;48.880;9.276;2024-02-21T06:35:47;176.27;;;162.02;;
16308;SDS011;8263;48.880;9.276;2024-02-21T06:38:16;177.60;;;162.98;;
16308;SDS011;8263;48.880;9.276;2024-02-21T06:40:44;179.73;;;165.13;;
16308;SDS011;8263;48.880;9.276;2024-02-21T06:43:15;179.73;;;165.15;;
16308;SDS011;8263;48.880;9.276;2024-02-21T06:45:41;178.18;;;163.73;;
16308;SDS011;8263;48.880;9.276;2024-02-21T06:48:07;176.05;;;161.75;;
16308;SDS011;8263;48.880;9.276;2024-02-21T06:50:34;179.63;;;165.02;;
16308;SDS011;8263;48.880;9.276;2024-02-21T06:53:00;178.88;;;164.25;;
16308;SDS011;8263;48.880;9.276;2024-02-21T06:55:27;178.73;;;164.02;;
16308;SDS011;8263;48.880;9.276;2024-02-21T06:57:55;179.90;;;165.25;;
16308;SDS011;8263;48.880;9.276;2024-02-21T07:00:21;178.15;;;163.52;;
16308;SDS011;8263;48.880;9.276;2024-02-21T07:02:48;179.50;;;164.70;;
16308;SDS011;8263;48.880;9.276;2024-02-21T07:05:14;177.88;;;163.43;;
16308;SDS011;8263;48.880;9.276;2024-02-21T07:07:41;179.13;;;163.88;;
16308;SDS011;8263;48.880;9.276;2024-02-21T07:10:07;178.45;;;163.93;;
16308;SDS011;8263;48.880;9.276;2024-02-21T07:12:34;179.35;;;164.80;;
16308;SDS011;8263;48.880;9.276;2024-02-21T07:15:04;178.43;;;163.93;;
16308;SDS011;8263;48.880;9.276;2024-02-21T07:17:30;177.85;;;163.30;;
16308;SDS011;8263;48.880;9.276;2024-02-21T07:19:57;176.27;;;161.98;;
16308;SDS011;8263;48.880;9.276;2024-02-21T07:22:24;181.63;;;166.82;;
16308;SDS011;8263;48.880;9.276;2024-02-21T07:24:50;180.25;;;165.45;;
16308;SDS011;8263;48.880;9.276;2024-02-21T07:27:17;178.57;;;164.10;;
16308;SDS011;8263;48.880;9.276;2024-02-21T07:29:43;179.65;;;164.95;;
16308;SDS011;8263;48.880;9.276;2024-02-21T07:32:13;179.07;;;164.52;;
16308;SDS011;8263;48.880;9.276;2024-02-21T07:34:40;177.20;;;162.65;;
16308;SDS011;8263;48.880;9.276;2024-02-21T07:37:06;177.40;;;163.02;;
16308;SDS011;8263;48.880;9.276;2024-02-21T07:39:35;178.43;;;163.85;;
16308;SDS011;8263;48.880;9.276;2024-02-21T07:42:02;176.82;;;162.38;;
16308;SDS011;8263;48.880;9.276;2024-02-21T07:44:28;176.07;;;161.75;;
16308;SDS011;8263;48.880;9.276;2024-02-21T07:46:56;176.23;;;161.98;;
16308;SDS011;8263;48.880;9.276;2024-02-21T07:49:25;178.75;;;164.18;;
16308;SDS011;8263;48.880;9.276;2024-02-21T07:51:51;179.60;;;164.85;;
16308;SDS011;8263;48.880;9.276;2024-02-21T07:54:18;179.05;;;164.52;;
16308;SDS011;8263;48.880;9.276;2024-02-21T07:56:45;178.95;;;164.38;;
16308;SDS011;8263;48.880;9.276;2024-02-21T07:59:12;176.93;;;162.57;;
16308;SDS011;8263;48.880;9.276;2024-02-21T08:01:40;176.02;;;161.73;;
16308;SDS011;8263;48.880;9.276;2024-02-21T08:04:06;179.30;;;164.75;;
16308;SDS011;8263;48.880;9.276;2024-02-21T08:06:35;178.40;;;163.90;;
16308;SDS011;8263;48.880;9.276;2024-02-21T08:09:01;176.98;;;162.55;;
16308;SDS011;8263;48.880;9.276;2024-02-21T08:11:28;177.65;;;163.25;;
16308;SDS011;8263;48.880;9.276;2024-02-21T08:13:54;179.77;;;164.98;;
16308;SDS011;8263;48.880;9.276;2024-02-21T08:16:20;179.52;;;164.95;;
16308;SDS011;8263;48.880;9.276;2024-02-21T08:18:47;177.98;;;163.50;;
16308;SDS011;8263;48.880;9.276;2024-02-21T08:21:13;180.35;;;165.43;;
16308;SDS011;8263;48.880;9.276;2024-02-21T08:23:41;178.98;;;164.43;;
16308;SDS011;8263;48.880;9.276;2024-02-21T08:26:08;177.55;;;163.15;;
16308;SDS011;8263;48.880;9.276;2024-02-21T08:28:34;178.82;;;164.30;;
16308;SDS011;8263;48.880;9.276;2024-02-21T08:31:00;177.20;;;162.82;;
16308;SDS011;8263;48.880;9.276;2024-02-21T08:33:27;180.40;;;165.50;;
16308;SDS011;8263;48.880;9.276;2024-02-21T08:35:55;176.02;;;161.75;;
16308;SDS011;8263;48.880;9.276;2024-02-21T08:38:21;178.70;;;164.23;;
16308;SDS011;8263;48.880;9.276;2024-02-21T08:40:49;179.43;;;164.85;;
16308;SDS011;8263;48.880;9.276;2024-02-21T08:43:16;177.55;;;163.15;;
16308;SDS011;8263;48.880;9.276;2024-02-21T08:45:42;180.52;;;165.20;;
16308;SDS011;8263;48.880;9.276;2024-02-21T08:48:08;179.00;;;164.50;;
16308;SDS011;8263;48.880;9.276;2024-02-21T08:50:35;176.05;;;161.80;;
16308;SDS011;8263;48.880;9.276;2024-02-21T08:53:02;177.38;;;161.68;;
16308;SDS011;8263;48.880;9.276;2024-02-21T08:55:29;176.68;;;161.82;;
16308;SDS011;8263;48.880;9.276;2024-02-21T08:57:57;176.35;;;162.10;;
16308;SDS011;8263;48.880;9.276;2024-02-21T09:00:24;176.80;;;162.30;;
16308;SDS011;8263;48.880;9.276;2024-02-21T09:02:52;176.73;;;162.00;;
16308;SDS011;8263;48.880;9.276;2024-02-21T09:05:20;176.32;;;162.05;;
16308;SDS011;8263;48.880;9.276;2024-02-21T09:07:47;176.32;;;162.07;;
16308;SDS011;8263;48.880;9.276;2024-02-21T09:10:13;177.63;;;163.02;;
16308;SDS011;8263;48.880;9.276;2024-02-21T09:12:40;176.02;;;161.82;;
16308;SDS011;8263;48.880;9.276;2024-02-21T09:15:09;174.13;;;160.13;;
16308;SDS011;8263;48.880;9.276;2024-02-21T09:17:35;175.63;;;161.48;;
16308;SDS011;8263;48.880;9.276;2024-02-21T09:20:02;173.15;;;159.20;;
16308;SDS011;8263;48.880;9.276;2024-02-21T09:22:29;176.43;;;162.02;;
16308;SDS011;8263;48.880;9.276;2024-02-21T09:24:56;174.55;;;160.48;;
16308;SDS011;8263;48.880;9.276;2024-02-21T09:27:22;176.32;;;162.02;;
16308;SDS011;8263;48.880;9.276;2024-02-21T09:29:49;175.48;;;161.30;;
16308;SDS011;8263;48.880;9.276;2024-02-21T09:32:17;174.63;;;160.55;;
16308;SDS011;8263;48.880;9.276;2024-02-21T09:34:44;173.57;;;159.60;;
16308;SDS011;8263;48.880;9.276;2024-02-21T09:37:10;174.13;;;160.02;;
16308;SDS011;8263;48.880;9.276;2024-02-21T09:39:37;174.00;;;160.00;;
16308;SDS011;8263;48.880;9.276;2024-02-21T09:42:05;175.18;;;160.23;;
16308;SDS011;8263;48.880;9.276;2024-02-21T09:44:33;174.05;;;159.68;;
16308;SDS011;8263;48.880;9.276;2024-02-21T09:47:02;174.30;;;160.23;;
16308;SDS011;8263;48.880;9.276;2024-02-21T09:49:31;172.02;;;158.18;;
16308;SDS011;8263;48.880;9.276;2024-02-21T09:52:00;174.27;;;160.23;;
16308;SDS011;8263;48.880;9.276;2024-02-21T09:54:32;173.82;;;159.80;;
16308;SDS011;8263;48.880;9.276;2024-02-21T09:56:58;173.65;;;159.70;;
16308;SDS011;8263;48.880;9.276;2024-02-21T09:59:25;173.90;;;159.90;;
16308;SDS011;8263;48.880;9.276;2024-02-21T10:01:54;171.00;;;157.25;;
16308;SDS011;8263;48.880;9.276;2024-02-21T10:04:20;173.20;;;159.30;;
16308;SDS011;8263;48.880;9.276;2024-02-21T10:06:48;172.57;;;158.25;;
16308;SDS011;8263;48.880;9.276;2024-02-21T10:09:21;169.52;;;156.02;;
16308;SDS011;8263;48.880;9.276;2024-02-21T10:11:49;173.07;;;159.18;;
16308;SDS011;8263;48.880;9.276;2024-02-21T10:14:16;172.95;;;159.05;;
16308;SDS011;8263;48.880;9.276;2024-02-21T10:16:43;169.65;;;156.15;;
16308;SDS011;8263;48.880;9.276;2024-02-21T10:19:15;171.73;;;157.98;;
16308;SDS011;8263;48.880;9.276;2024-02-21T10:21:42;172.23;;;158.43;;
16308;SDS011;8263;48.880;9.276;2024-02-21T10:24:11;172.27;;;158.48;;
16308;SDS011;8263;48.880;9.276;2024-02-21T10:26:38;172.13;;;158.32;;
16308;SDS011;8263;48.880;9.276;2024-02-21T10:29:04;171.48;;;157.75;;
16308;SDS011;8263;48.880;9.276;2024-02-21T10:31:31;169.15;;;155.65;;
16308;SDS011;8263;48.880;9.276;2024-02-21T10:33:58;170.05;;;156.52;;
16308;SDS011;8263;48.880;9.276;2024-02-21T10:36:28;171.05;;;157.43;;
16308;SDS011;8263;48.880;9.276;2024-02-21T10:38:54;171.63;;;157.93;;
16308;SDS011;8263;48.880;9.276;2024-02-21T10:41:22;169.55;;;156.05;;
16308;SDS011;8263;48.880;9.276;2024-02-21T10:43:50;170.30;;;156.70;;
16308;SDS011;8263;48.880;9.276;2024-02-21T10:46:18;171.05;;;157.35;;
16308;SDS011;8263;48.880;9.276;2024-02-21T10:48:45;168.57;;;155.23;;
16308;SDS011;8263;48.880;9.276;2024-02-21T10:51:14;169.45;;;155.98;;
16308;SDS011;8263;48.880;9.276;2024-02-21T10:53:42;170.50;;;156.90;;
16308;SDS011;8263;48.880;9.276;2024-02-21T10:56:14;170.88;;;157.27;;
16308;SDS011;8263;48.880;9.276;2024-02-21T10:58:44;169.65;;;156.15;;
16308;SDS011;8263;48.880;9.276;2024-02-21T11:01:12;167.35;;;153.70;;
16308;SDS011;8263;48.880;9.276;2024-02-21T11:03:40;169.68;;;156.23;;
16308;SDS011;8263;48.880;9.276;2024-02-21T11:06:07;168.95;;;155.57;;
16308;SDS011;8263;48.880;9.276;2024-02-21T11:08:35;168.77;;;155.38;;
16308;SDS011;8263;48.880;9.276;2024-02-21T11:11:02;165.50;;;152.50;;
16308;SDS011;8263;48.880;9.276;2024-02-21T11:13:30;166.88;;;153.65;;
16308;SDS011;8263;48.880;9.276;2024-02-21T11:16:07;163.77;;;150.98;;
16308;SDS011;8263;48.880;9.276;2024-02-21T11:18:34;166.18;;;153.13;;
16308;SDS011;8263;48.880;9.276;2024-02-21T11:21:00;167.23;;;154.00;;
16308;SDS011;8263;48.880;9.276;2024-02-21T11:23:28;166.80;;;153.68;;
16308;SDS011;8263;48.880;9.276;2024-02-21T11:26:03;167.50;;;154.20;;
16308;SDS011;8263;48.880;9.276;2024-02-21T11:28:29;166.45;;;153.30;;
16308;SDS011;8263;48.880;9.276;2024-02-21T11:31:04;167.10;;;153.93;;
16308;SDS011;8263;48.880;9.276;2024-02-21T11:33:32;168.45;;;155.02;;
16308;SDS011;8263;48.880;9.276;2024-02-21T11:35:59;164.27;;;151.35;;
16308;SDS011;8263;48.880;9.276;2024-02-21T11:38:25;167.10;;;153.93;;
16308;SDS011;8263;48.880;9.276;2024-02-21T11:40:52;166.13;;;153.07;;
16308;SDS011;8263;48.880;9.276;2024-02-21T11:43:19;167.30;;;154.13;;
16308;SDS011;8263;48.880;9.276;2024-02-21T11:45:46;166.32;;;153.23;;
16308;SDS011;8263;48.880;9.276;2024-02-21T11:48:12;166.45;;;153.32;;
16308;SDS011;8263;48.880;9.276;2024-02-21T11:50:52;163.70;;;150.95;;
16308;SDS011;8263;48.880;9.276;2024-02-21T11:53:18;165.13;;;152.23;;
16308;SDS011;8263;48.880;9.276;2024-02-21T11:55:46;163.70;;;151.00;;
16308;SDS011;8263;48.880;9.276;2024-02-21T11:58:12;168.00;;;154.77;;
16308;SDS011;8263;48.880;9.276;2024-02-21T12:00:39;166.32;;;153.27;;
16308;SDS011;8263;48.880;9.276;2024-02-21T12:03:05;163.35;;;150.65;;
16308;SDS011;8263;48.880;9.276;2024-02-21T12:05:32;165.55;;;152.60;;
16308;SDS011;8263;48.880;9.276;2024-02-21T12:08:00;165.40;;;152.50;;
16308;SDS011;8263;48.880;9.276;2024-02-21T12:10:26;165.40;;;152.38;;
16308;SDS011;8263;48.880;9.276;2024-02-21T12:12:53;163.65;;;150.77;;
16308;SDS011;8263;48.880;9.276;2024-02-21T12:15:23;164.23;;;151.43;;
16308;SDS011;8263;48.880;9.276;2024-02-21T12:17:49;165.23;;;152.32;;
16308;SDS011;8263;48.880;9.276;2024-02-21T12:20:17;167.25;;;154.10;;
16308;SDS011;8263;48.880;9.276;2024-02-21T12:22:45;165.20;;;152.30;;
16308;SDS011;8263;48.880;9.276;2024-02-21T12:25:20;165.18;;;152.27;;
16308;SDS011;8263;48.880;9.276;2024-02-21T12:27:51;164.65;;;151.85;;
16308;SDS011;8263;48.880;9.276;2024-02-21T12:30:20;163.48;;;150.77;;
16308;SDS011;8263;48.880;9.276;2024-02-21T12:32:46;165.07;;;152.00;;
16308;SDS011;8263;48.880;9.276;2024-02-21T12:35:14;165.00;;;152.13;;
16308;SDS011;8263;48.880;9.276;2024-02-21T12:37:41;164.75;;;151.93;;
16308;SDS011;8263;48.880;9.276;2024-02-21T12:40:08;164.35;;;151.35;;
16308;SDS011;8263;48.880;9.276;2024-02-21T12:42:37;163.13;;;150.50;;
16308;SDS011;8263;48.880;9.276;2024-02-21T12:45:03;162.70;;;150.07;;
16308;SDS011;8263;48.880;9.276;2024-02-21T12:47:30;163.73;;;151.00;;
16308;SDS011;8263;48.880;9.276;2024-02-21T12:49:56;161.98;;;149.48;;
16308;SDS011;8263;48.880;9.276;2024-02-21T12:52:23;163.15;;;150.48;;
16308;SDS011;8263;48.880;9.276;2024-02-21T12:54:50;163.07;;;150.30;;
16308;SDS011;8263;48.880;9.276;2024-02-21T12:57:16;165.25;;;152.38;;
16308;SDS011;8263;48.880;9.276;2024-02-21T12:59:44;165.40;;;152.50;;
16308;SDS011;8263;48.880;9.276;2024-02-21T13:02:11;163.52;;;150.80;;
16308;SDS011;8263;48.880;9.276;2024-02-21T13:04:37;164.05;;;151.27;;
16308;SDS011;8263;48.880;9.276;2024-02-21T13:07:06;165.85;;;152.45;;
16308;SDS011;8263;48.880;9.276;2024-02-21T13:09:33;159.82;;;147.43;;
16308;SDS011;8263;48.880;9.276;2024-02-21T13:11:59;159.63;;;147.32;;
16308;SDS011;8263;48.880;9.276;2024-02-21T13:14:27;159.98;;;147.50;;
16308;SDS011;8263;48.880;9.276;2024-02-21T13:16:55;159.45;;;147.23;;
16308;SDS011;8263;48.880;9.276;2024-02-21T13:19:22;162.45;;;149.90;;
16308;SDS011;8263;48.880;9.276;2024-02-21T13:21:48;161.68;;;149.10;;
16308;SDS011;8263;48.880;9.276;2024-02-21T13:24:15;161.13;;;148.73;;
16308;SDS011;8263;48.880;9.276;2024-02-21T13:26:42;159.35;;;147.15;;
16308;SDS011;8263;48.880;9.276;2024-02-21T13:29:08;160.57;;;148.18;;
16308;SDS011;8263;48.880;9.276;2024-02-21T13:31:35;160.27;;;147.98;;
16308;SDS011;8263;48.880;9.276;2024-02-21T13:34:03;162.05;;;149.55;;
16308;SDS011;8263;48.880;9.276;2024-02-21T13:36:29;160.90;;;148.55;;
16308;SDS011;8263;48.880;9.276;2024-02-21T13:38:56;159.32;;;146.95;;
16308;SDS011;8263;48.880;9.276;2024-02-21T13:41:23;160.30;;;147.80;;
16308;SDS011;8263;48.880;9.276;2024-02-21T13:43:50;162.20;;;149.63;;
16308;SDS011;8263;48.880;9.276;2024-02-21T13:46:16;159.70;;;147.30;;
16308;SDS011;8263;48.880;9.276;2024-02-21T13:48:43;161.73;;;149.27;;
16308;SDS011;8263;48.880;9.276;2024-02-21T13:51:12;159.93;;;147.65;;
16308;SDS011;8263;48.880;9.276;2024-02-21T13:53:39;158.25;;;146.15;;
16308;SDS011;8263;48.880;9.276;2024-02-21T13:56:05;161.02;;;148.63;;
16308;SDS011;8263;48.880;9.276;2024-02-21T13:58:34;158.95;;;146.77;;
16308;SDS011;8263;48.880;9.276;2024-02-21T14:01:01;160.50;;;148.15;;
16308;SDS011;8263;48.880;9.276;2024-02-21T14:03:28;157.93;;;145.88;;
16308;SDS011;8263;48.880;9.276;2024-02-21T14:05:54;158.80;;;146.57;;
16308;SDS011;8263;48.880;9.276;2024-02-21T14:08:22;160.82;;;148.48;;